Time;durP1;ratioP1;P1;durP2;ratioP2;P2;SDS_P1;SDS_P2;PMS_P1;PMS_P2;Temp;Humidity;BMP_temperature;BMP_pressure;BME280_temperature;BME280_humidity;BME280_pressure;Samples;Min_cycle;Max_cycle;Signal;HPM_P1;HPM_P2
2022/08/01 00:00:01;;;;;;;712.10;662.80;;;;;;;25.24;51.85;99241.06;338855;29;1302;-81
2022/08/01 00:00:12;;;;;;;704.40;655.17;;;;;;;25.19;51.57;99237.06;342537;28;1101;-81
2022/08/01 00:00:22;;;;;;;704.58;655.25;;;;;;;25.16;51.65;99242.75;342948;28;1333;-81
2022/08/01 00:00:33;;;;;;;708.53;658.93;;;;;;;25.14;51.75;99235.88;338971;29;1345;-81
2022/08/01 00:00:43;;;;;;;716.17;666.35;;;;;;;25.14;51.92;99242.06;338058;29;1326;-81
2022/08/01 00:00:53;;;;;;;716.27;666.20;;;;;;;25.14;51.77;99238.53;337911;29;1488;-81
2022/08/01 00:01:04;;;;;;;712.45;662.63;;;;;;;25.10;51.99;99232.72;339954;28;1245;-81
2022/08/01 00:01:14;;;;;;;710.50;660.57;;;;;;;25.09;51.77;99232.88;340138;29;1292;-81
2022/08/01 00:01:25;;;;;;;713.88;663.92;;;;;;;25.10;51.97;99237.22;340457;28;1379;-81
2022/08/01 00:01:35;;;;;;;716.53;666.50;;;;;;;25.06;51.93;99234.03;338144;28;1416;-81
2022/08/01 00:01:46;;;;;;;720.22;670.08;;;;;;;25.07;52.21;99238.38;339891;29;1325;-80
2022/08/01 00:01:56;;;;;;;723.40;673.37;;;;;;;25.07;51.76;99240.22;339868;28;1415;-80
2022/08/01 00:02:07;;;;;;;727.33;677.45;;;;;;;25.09;51.96;99236.38;338641;29;2012;-80
2022/08/01 00:02:17;;;;;;;726.00;676.30;;;;;;;25.09;51.75;99235.56;332505;29;1331;-80
2022/08/01 00:02:28;;;;;;;726.05;676.38;;;;;;;25.08;52.20;99232.03;338686;29;1277;-80
2022/08/01 00:02:38;;;;;;;727.37;677.47;;;;;;;25.10;52.01;99234.56;340720;28;1231;-80
2022/08/01 00:02:49;;;;;;;731.45;681.50;;;;;;;25.09;51.69;99232.88;337533;29;1239;-80
2022/08/01 00:02:59;;;;;;;730.07;680.03;;;;;;;25.08;51.85;99233.88;336681;29;1292;-80
2022/08/01 00:03:10;;;;;;;722.33;672.63;;;;;;;25.07;51.85;99234.88;341586;28;1343;-80
2022/08/01 00:03:20;;;;;;;702.57;653.27;;;;;;;25.07;51.97;99232.19;339248;29;1587;-80
2022/08/01 00:03:31;;;;;;;694.15;645.05;;;;;;;25.05;51.70;99236.88;335074;29;1220;-80
2022/08/01 00:03:41;;;;;;;688.83;639.63;;;;;;;25.03;52.05;99242.41;339770;28;1934;-80
2022/08/01 00:03:51;;;;;;;703.80;654.33;;;;;;;25.02;52.18;99246.09;338243;29;1789;-80
2022/08/01 00:04:02;;;;;;;711.37;661.60;;;;;;;24.99;52.21;99240.22;335218;29;893;-80
2022/08/01 00:04:13;;;;;;;721.88;671.83;;;;;;;24.98;52.39;99235.84;343568;28;1775;-80
2022/08/01 00:04:23;;;;;;;721.60;671.33;;;;;;;24.98;52.38;99243.88;341083;28;2085;-81
2022/08/01 00:04:33;;;;;;;721.92;671.58;;;;;;;24.97;52.04;99235.03;337003;29;1227;-81
2022/08/01 00:04:44;;;;;;;720.47;670.13;;;;;;;25.00;51.90;99240.06;338791;29;1261;-81
2022/08/01 00:04:54;;;;;;;720.78;670.72;;;;;;;25.01;52.12;99241.72;337809;29;1138;-81
2022/08/01 00:05:05;;;;;;;727.77;677.63;;;;;;;25.04;52.06;99238.72;337773;29;1179;-81
2022/08/01 00:05:16;;;;;;;728.78;678.65;;;;;;;25.07;51.88;99241.06;338714;29;885;-80
2022/08/01 00:05:26;;;;;;;725.23;675.00;;;;;;;25.10;51.85;99234.56;335902;29;1736;-80
2022/08/01 00:05:37;;;;;;;714.00;664.20;;;;;;;25.09;52.04;99231.03;331147;29;1927;-82
2022/08/01 00:05:47;;;;;;;710.10;660.33;;;;;;;25.12;52.08;99235.22;331461;29;875;-81
2022/08/01 00:05:57;;;;;;;713.67;663.85;;;;;;;25.14;52.13;99243.91;333443;29;2414;-81
2022/08/01 00:06:08;;;;;;;715.73;666.00;;;;;;;25.14;51.90;99239.38;329989;29;2154;-81
2022/08/01 00:06:18;;;;;;;715.67;666.00;;;;;;;25.14;51.87;99238.53;323660;30;1189;-81
2022/08/01 00:06:29;;;;;;;716.50;666.87;;;;;;;25.10;52.23;99238.06;322420;30;1311;-81
2022/08/01 00:06:39;;;;;;;717.42;667.72;;;;;;;25.08;52.00;99239.22;322577;30;2520;-81
2022/08/01 00:06:50;;;;;;;722.00;672.20;;;;;;;25.06;52.02;99241.22;323835;30;1823;-81
2022/08/01 00:07:00;;;;;;;720.28;670.60;;;;;;;25.03;52.13;99233.53;328498;30;1355;-81
2022/08/01 00:07:10;;;;;;;725.77;675.87;;;;;;;25.00;51.88;99236.53;324508;30;1486;-81
2022/08/01 00:07:21;;;;;;;732.67;682.40;;;;;;;25.02;51.86;99239.88;323843;30;1751;-81
2022/08/01 00:07:32;;;;;;;738.15;687.60;;;;;;;25.02;51.82;99245.25;322607;30;1277;-81
2022/08/01 00:07:42;;;;;;;729.78;679.50;;;;;;;24.98;51.92;99238.53;324579;30;2201;-80
2022/08/01 00:07:53;;;;;;;718.07;668.00;;;;;;;24.98;51.87;99233.19;321420;30;2370;-80
2022/08/01 00:08:03;;;;;;;711.97;662.17;;;;;;;24.97;51.96;99237.69;316651;31;1203;-80
2022/08/01 00:08:14;;;;;;;714.07;664.37;;;;;;;24.97;52.05;99242.22;319345;31;1025;-80
2022/08/01 00:08:24;;;;;;;717.10;667.37;;;;;;;24.99;51.79;99240.22;319283;30;2731;-80
2022/08/01 00:08:35;;;;;;;726.30;676.37;;;;;;;24.99;51.80;99229.50;316483;30;3028;-80
2022/08/01 00:08:45;;;;;;;731.05;681.03;;;;;;;25.00;51.69;99228.50;319012;31;1491;-80
2022/08/01 00:08:55;;;;;;;739.40;688.90;;;;;;;25.01;51.83;99236.38;319112;30;2861;-80
2022/08/01 00:09:06;;;;;;;739.35;688.78;;;;;;;24.98;51.68;99230.50;321010;30;2402;-80
2022/08/01 00:09:16;;;;;;;742.17;691.37;;;;;;;25.00;51.88;99236.53;319864;30;1318;-80
2022/08/01 00:09:27;;;;;;;738.70;688.22;;;;;;;25.03;51.82;99241.56;321213;30;2356;-80
2022/08/01 00:09:37;;;;;;;746.07;695.53;;;;;;;25.03;51.76;99238.88;314209;31;2473;-80
2022/08/01 00:09:48;;;;;;;745.70;695.40;;;;;;;24.99;51.73;99235.69;311930;31;1189;-80
2022/08/01 00:09:58;;;;;;;741.75;691.45;;;;;;;25.01;51.93;99238.22;315771;31;3442;-80
2022/08/01 00:10:10;;;;;;;728.67;678.47;;;;;;;25.00;51.83;99225.81;316303;30;4681;-80
2022/08/01 00:10:21;;;;;;;714.45;664.38;;;;;;;25.04;52.04;99237.88;314555;31;6243;-80
2022/08/01 00:10:31;;;;;;;712.60;662.63;;;;;;;25.02;51.73;99232.69;311647;31;777;-80
2022/08/01 00:10:42;;;;;;;714.05;664.33;;;;;;;25.02;51.89;99237.22;311588;31;4356;-80
2022/08/01 00:10:52;;;;;;;725.17;675.33;;;;;;;25.04;51.76;99237.88;308606;31;3887;-80
2022/08/01 00:11:02;;;;;;;729.53;679.63;;;;;;;25.04;51.92;99240.56;309093;31;1010;-80
2022/08/01 00:11:13;;;;;;;724.97;674.90;;;;;;;25.03;52.07;99236.22;309297;31;3939;-81
2022/08/01 00:11:24;;;;;;;724.13;674.03;;;;;;;25.04;51.89;99227.16;308820;31;3213;-81
2022/08/01 00:11:34;;;;;;;732.03;681.87;;;;;;;25.00;52.03;99233.84;305676;31;4035;-81
2022/08/01 00:11:45;;;;;;;734.53;684.40;;;;;;;24.97;51.93;99232.34;301519;32;1353;-81
2022/08/01 00:11:55;;;;;;;731.07;681.00;;;;;;;24.95;51.97;99234.31;304573;32;3747;-81
2022/08/01 00:12:06;;;;;;;731.22;681.15;;;;;;;24.93;52.05;99235.47;304194;32;5037;-81
2022/08/01 00:12:16;;;;;;;743.70;693.07;;;;;;;24.91;52.18;99232.13;299705;32;1101;-81
2022/08/01 00:12:27;;;;;;;750.88;700.00;;;;;;;24.91;51.87;99234.78;301503;32;6178;-81
2022/08/01 00:12:37;;;;;;;743.73;693.13;;;;;;;24.91;52.08;99232.13;301374;32;8972;-81
2022/08/01 00:12:47;;;;;;;733.47;683.28;;;;;;;24.90;52.00;99231.28;300462;32;1389;-81
2022/08/01 00:12:58;;;;;;;733.30;682.73;;;;;;;24.93;51.82;99235.47;297760;32;7471;-81
2022/08/01 00:13:08;;;;;;;741.53;690.67;;;;;;;24.94;52.07;99227.28;295351;32;5755;-81
2022/08/01 00:13:19;;;;;;;747.57;696.67;;;;;;;24.97;51.78;99232.34;293282;33;5241;-81
2022/08/01 00:13:29;;;;;;;749.97;699.13;;;;;;;24.98;51.86;99230.50;289265;34;1318;-81
2022/08/01 00:13:39;;;;;;;752.65;701.72;;;;;;;24.99;52.19;99230.34;290059;33;4554;-81
2022/08/01 00:13:50;;;;;;;755.33;704.40;;;;;;;25.01;51.73;99238.22;288355;33;5198;-81
2022/08/01 00:14:00;;;;;;;760.10;709.22;;;;;;;25.00;51.96;99223.13;288816;34;1226;-83
2022/08/01 00:14:11;;;;;;;760.37;709.50;;;;;;;24.98;52.10;99225.16;287268;33;6187;-81
2022/08/01 00:14:21;;;;;;;755.40;704.60;;;;;;;24.98;51.79;99219.78;286620;33;8016;-81
2022/08/01 00:14:32;;;;;;;744.63;694.00;;;;;;;24.96;52.03;99224.47;286753;34;1240;-81
2022/08/01 00:14:43;;;;;;;737.50;687.10;;;;;;;24.91;51.99;99230.28;286092;34;9137;-81
2022/08/01 00:17:02;;;;;;;657.35;609.87;;;;;;;24.99;51.82;99234.84;2496095;27;20753;-81
2022/08/01 00:17:13;;;;;;;730.23;680.47;;;;;;;24.97;51.82;99231.50;350801;28;1183;-81
2022/08/01 00:17:23;;;;;;;729.85;680.03;;;;;;;24.96;51.85;99229.81;348758;28;769;-81
2022/08/01 00:17:34;;;;;;;732.70;682.90;;;;;;;24.96;51.68;99229.81;348396;28;1295;-81
2022/08/01 00:17:44;;;;;;;732.80;683.07;;;;;;;24.97;51.76;99232.34;346614;28;1304;-81
2022/08/01 00:17:54;;;;;;;739.10;689.20;;;;;;;24.96;51.94;99230.66;348263;28;1307;-81
2022/08/01 00:18:05;;;;;;;745.90;695.70;;;;;;;24.94;51.80;99227.28;348137;28;1310;-81
2022/08/01 00:18:15;;;;;;;750.13;699.80;;;;;;;24.94;51.78;99226.44;347246;28;1340;-81
2022/08/01 00:18:26;;;;;;;752.43;702.03;;;;;;;24.93;52.33;99238.16;348061;28;1407;-81
2022/08/01 00:18:36;;;;;;;752.20;701.83;;;;;;;24.92;52.17;99229.28;345990;28;1236;-81
2022/08/01 00:18:46;;;;;;;755.30;704.50;;;;;;;24.94;51.70;99226.44;345567;28;1212;-81
2022/08/01 00:18:57;;;;;;;754.83;704.03;;;;;;;24.93;51.74;99225.59;346126;28;1320;-81
2022/08/01 00:19:07;;;;;;;751.30;700.45;;;;;;;24.96;52.01;99221.78;346983;28;1231;-81
2022/08/01 00:19:18;;;;;;;753.77;703.10;;;;;;;24.93;51.79;99230.13;346714;28;1373;-81
2022/08/01 00:19:28;;;;;;;754.92;704.13;;;;;;;24.95;51.72;99230.78;349436;28;1135;-81
2022/08/01 00:19:39;;;;;;;757.83;707.03;;;;;;;24.90;51.76;99219.72;349645;28;1217;-81
2022/08/01 00:19:49;;;;;;;757.72;706.97;;;;;;;24.94;52.05;99229.13;346545;28;1293;-81
2022/08/01 00:19:59;;;;;;;760.87;710.03;;;;;;;24.91;51.49;99226.75;344788;28;1339;-81
2022/08/01 00:20:11;;;;;;;764.17;713.42;;;;;;;24.93;51.87;99230.13;347187;28;1182;-81
2022/08/01 00:20:22;;;;;;;766.38;715.50;;;;;;;24.91;51.91;99232.13;345522;28;1409;-81
2022/08/01 00:20:32;;;;;;;758.35;707.60;;;;;;;24.92;51.96;99240.00;344444;28;1291;-81
2022/08/01 00:20:43;;;;;;;748.90;698.10;;;;;;;24.90;51.75;99233.13;345430;28;1352;-81
2022/08/01 00:20:53;;;;;;;742.80;692.13;;;;;;;24.87;52.19;99221.72;344562;28;1315;-81
2022/08/01 00:21:04;;;;;;;741.63;691.17;;;;;;;24.89;51.85;99234.97;345350;28;1695;-81
2022/08/01 00:21:14;;;;;;;741.83;691.47;;;;;;;24.90;52.14;99230.44;348663;28;1226;-81
2022/08/01 00:21:25;;;;;;;742.70;692.30;;;;;;;24.91;51.66;99229.44;346625;28;1179;-81
2022/08/01 00:21:35;;;;;;;745.40;694.95;;;;;;;24.92;51.57;99228.44;345527;28;1289;-81
2022/08/01 00:21:46;;;;;;;747.33;696.93;;;;;;;24.94;51.83;99231.78;343911;28;1387;-81
2022/08/01 00:21:56;;;;;;;746.28;695.88;;;;;;;24.92;51.88;99231.13;345462;28;1247;-81
2022/08/01 00:22:06;;;;;;;749.83;699.17;;;;;;;24.92;51.90;99234.63;346254;28;1370;-81
2022/08/01 00:22:17;;;;;;;752.70;701.83;;;;;;;24.91;51.94;99232.13;344047;28;1263;-81
2022/08/01 00:22:27;;;;;;;752.53;701.53;;;;;;;24.93;51.61;99232.78;345378;28;1250;-81
2022/08/01 00:22:38;;;;;;;751.58;700.92;;;;;;;24.90;51.72;99231.28;347146;28;1236;-81
2022/08/01 00:22:48;;;;;;;748.67;698.17;;;;;;;24.91;51.62;99232.13;342740;28;1200;-81
2022/08/01 00:22:58;;;;;;;754.80;704.33;;;;;;;24.90;52.02;99230.44;344627;28;1403;-81
2022/08/01 00:23:09;;;;;;;756.15;705.65;;;;;;;24.91;51.92;99237.47;344805;28;1258;-81
2022/08/01 00:23:19;;;;;;;759.67;709.13;;;;;;;24.91;51.91;99226.75;343000;28;1434;-81
2022/08/01 00:23:30;;;;;;;760.00;709.30;;;;;;;24.93;51.81;99238.16;345769;28;1317;-81
2022/08/01 00:23:40;;;;;;;762.47;711.57;;;;;;;24.92;51.55;99234.63;346181;28;1347;-81
2022/08/01 00:23:51;;;;;;;761.95;711.15;;;;;;;24.96;51.58;99229.81;344787;28;1237;-81
2022/08/01 00:24:01;;;;;;;762.83;711.80;;;;;;;24.99;51.29;99237.53;341329;28;1361;-81
2022/08/01 00:24:12;;;;;;;763.15;711.95;;;;;;;24.99;51.46;99226.81;341530;28;1261;-81
2022/08/01 00:24:22;;;;;;;760.20;709.00;;;;;;;24.99;51.58;99235.69;339820;28;1222;-81
2022/08/01 00:24:33;;;;;;;754.90;703.95;;;;;;;25.00;51.50;99236.53;341456;28;809;-81
2022/08/01 00:24:43;;;;;;;753.10;702.10;;;;;;;24.96;51.54;99235.19;346892;28;1521;-81
2022/08/01 00:24:53;;;;;;;746.58;695.72;;;;;;;24.96;51.23;99224.47;345571;28;1836;-81
2022/08/01 00:25:04;;;;;;;733.90;683.30;;;;;;;24.99;51.48;99230.34;345330;28;1283;-81
2022/08/01 00:25:15;;;;;;;721.83;671.50;;;;;;;24.98;51.43;99233.19;345106;28;1326;-81
2022/08/01 00:25:25;;;;;;;724.40;673.97;;;;;;;24.95;51.61;99228.94;341594;28;1413;-81
2022/08/01 00:25:36;;;;;;;732.33;681.78;;;;;;;24.95;51.50;99237.00;339563;28;1237;-81
2022/08/01 00:25:46;;;;;;;737.30;686.70;;;;;;;24.95;51.44;99233.47;336432;28;1273;-81
2022/08/01 00:25:56;;;;;;;738.95;688.45;;;;;;;24.88;51.94;99228.78;335835;29;1316;-81
2022/08/01 00:26:07;;;;;;;740.17;689.63;;;;;;;24.91;51.76;99232.13;337551;29;1231;-81
2022/08/01 00:26:17;;;;;;;738.53;688.22;;;;;;;24.92;51.65;99228.44;335434;29;1371;-81
2022/08/01 00:26:29;;;;;;;740.13;689.77;;;;;;;24.90;51.58;99225.09;334989;29;1165;-81
2022/08/01 00:26:40;;;;;;;739.65;689.40;;;;;;;24.93;51.51;99233.63;335056;29;1728;-81
2022/08/01 00:26:50;;;;;;;738.90;688.60;;;;;;;24.94;52.10;99238.00;333614;29;1189;-81
2022/08/01 00:27:00;;;;;;;730.83;680.67;;;;;;;24.96;51.53;99229.81;336704;29;1577;-81
2022/08/01 00:27:11;;;;;;;731.30;680.93;;;;;;;24.96;51.69;99232.50;335761;29;1839;-81
2022/08/01 00:27:21;;;;;;;730.17;679.78;;;;;;;24.99;51.53;99229.50;330754;29;1976;-81
2022/08/01 00:27:32;;;;;;;736.23;685.63;;;;;;;24.99;51.73;99230.34;333535;29;1247;-81
2022/08/01 00:27:42;;;;;;;727.88;677.60;;;;;;;24.93;51.79;99232.78;334186;29;1909;-81
2022/08/01 00:27:54;;;;;;;724.93;674.73;;;;;;;24.93;51.50;99232.78;333039;29;1942;-81
2022/08/01 00:28:08;;;;;;;716.17;666.38;;;;;;;24.90;51.27;99231.28;327316;30;1321;-80
2022/08/01 00:28:18;;;;;;;713.53;663.70;;;;;;;24.91;51.50;99237.47;330041;29;1252;-81
2022/08/01 00:28:29;;;;;;;716.77;666.87;;;;;;;24.92;51.62;99236.47;329824;29;1332;-81
2022/08/01 00:28:40;;;;;;;723.95;673.97;;;;;;;24.88;51.41;99228.78;328888;29;1519;-81
2022/08/01 00:28:50;;;;;;;726.50;676.28;;;;;;;24.91;51.54;99232.13;326259;30;1355;-81
2022/08/01 00:29:00;;;;;;;724.70;674.53;;;;;;;24.90;51.58;99233.13;330047;29;1751;-81
2022/08/01 00:29:11;;;;;;;727.10;676.70;;;;;;;24.90;51.54;99233.13;328578;29;2018;-81
2022/08/01 00:29:21;;;;;;;730.35;680.13;;;;;;;24.89;51.76;99234.97;325636;30;2284;-82
2022/08/01 00:29:32;;;;;;;736.00;685.63;;;;;;;24.88;51.40;99228.78;320411;30;1443;-81
2022/08/01 00:29:42;;;;;;;735.17;684.95;;;;;;;24.91;51.81;99238.31;321920;30;2399;-81
2022/08/01 00:29:52;;;;;;;736.47;686.17;;;;;;;24.92;51.33;99237.31;324152;30;2556;-81
2022/08/01 00:30:04;;;;;;;735.13;685.03;;;;;;;24.91;51.53;99230.28;320230;30;890;-81
2022/08/01 00:30:14;;;;;;;746.45;695.83;;;;;;;24.91;51.40;99230.28;316730;30;2523;-81
2022/08/01 00:30:25;;;;;;;747.67;696.92;;;;;;;24.91;51.59;99237.47;318004;30;1807;-81
2022/08/01 00:30:36;;;;;;;748.07;697.17;;;;;;;24.88;51.55;99228.78;320754;30;1121;-81
2022/08/01 00:30:46;;;;;;;744.15;693.38;;;;;;;24.92;51.43;99233.78;320386;30;1573;-82
2022/08/01 00:30:56;;;;;;;744.67;693.77;;;;;;;24.90;51.60;99235.81;320182;30;2233;-82
2022/08/01 00:31:07;;;;;;;748.67;697.75;;;;;;;24.92;51.35;99233.78;320757;30;2551;-81
2022/08/01 00:31:17;;;;;;;743.77;693.20;;;;;;;24.92;51.54;99234.63;316758;31;731;-81
2022/08/01 00:31:28;;;;;;;741.80;691.53;;;;;;;24.92;51.44;99237.31;319172;30;3023;-81
2022/08/01 00:31:38;;;;;;;738.13;688.03;;;;;;;24.93;51.36;99238.16;319246;30;2981;-81
2022/08/01 00:31:49;;;;;;;744.00;693.83;;;;;;;24.91;51.53;99232.13;315500;31;1239;-81
2022/08/01 00:31:59;;;;;;;746.67;696.17;;;;;;;24.91;51.42;99232.13;310256;31;3485;-81
2022/08/01 00:32:10;;;;;;;745.50;694.80;;;;;;;24.93;51.56;99232.78;308662;31;3206;-81
2022/08/01 00:32:20;;;;;;;736.37;685.70;;;;;;;24.90;51.63;99230.44;307684;32;1269;-81
2022/08/01 00:32:31;;;;;;;730.83;680.47;;;;;;;24.92;51.18;99233.78;312649;31;3097;-81
2022/08/01 00:32:42;;;;;;;732.63;682.33;;;;;;;24.91;51.63;99235.63;312601;31;2493;-82
2022/08/01 00:32:52;;;;;;;738.50;687.97;;;;;;;24.93;51.51;99232.78;310344;31;2128;-82
2022/08/01 00:33:03;;;;;;;738.17;687.65;;;;;;;24.95;51.36;99238.81;307862;32;860;-82
2022/08/01 00:33:13;;;;;;;733.97;683.57;;;;;;;24.97;51.23;99237.69;309261;31;3250;-82
2022/08/01 00:33:24;;;;;;;731.60;681.38;;;;;;;24.95;51.47;99237.00;305767;32;3850;-81
2022/08/01 00:33:34;;;;;;;734.60;684.30;;;;;;;24.96;51.59;99232.50;302212;32;1475;-81
2022/08/01 00:33:44;;;;;;;730.35;680.28;;;;;;;24.94;51.27;99231.78;305105;32;3964;-81
2022/08/01 00:33:55;;;;;;;725.50;675.40;;;;;;;24.93;51.57;99240.81;299951;32;4362;-81
2022/08/01 00:34:05;;;;;;;722.40;672.20;;;;;;;24.90;51.63;99233.13;295631;33;1203;-81
2022/08/01 00:34:16;;;;;;;720.43;670.33;;;;;;;24.87;51.40;99235.13;297105;32;4640;-81
2022/08/01 00:34:26;;;;;;;713.73;664.00;;;;;;;24.87;51.70;99240.47;298063;32;4174;-81
2022/08/01 00:34:36;;;;;;;712.88;663.22;;;;;;;24.86;51.75;99236.13;295466;33;4036;-81
2022/08/01 00:34:47;;;;;;;716.43;666.63;;;;;;;24.88;51.60;99234.13;294461;33;1315;-81
2022/08/01 00:34:57;;;;;;;718.33;668.55;;;;;;;24.90;51.63;99227.75;294709;33;3176;-81
2022/08/01 00:35:08;;;;;;;715.67;665.97;;;;;;;24.91;51.61;99241.00;291544;33;3364;-81
2022/08/01 00:35:19;;;;;;;707.35;657.92;;;;;;;24.91;51.81;99237.47;289524;34;1376;-81
2022/08/01 00:35:29;;;;;;;712.47;662.83;;;;;;;24.86;51.70;99236.13;292967;33;5151;-81
2022/08/01 00:35:40;;;;;;;712.83;663.13;;;;;;;24.84;51.94;99232.78;289137;33;5672;-81
2022/08/01 00:35:50;;;;;;;719.70;669.70;;;;;;;24.81;51.54;99232.25;283990;34;2030;-81
2022/08/01 00:36:00;;;;;;;722.00;671.75;;;;;;;24.78;51.93;99238.78;284590;34;6301;-81
2022/08/01 00:36:11;;;;;;;717.73;667.53;;;;;;;24.78;51.93;99243.28;282688;34;6080;-81
2022/08/01 00:36:21;;;;;;;709.65;659.67;;;;;;;24.79;51.93;99234.25;281916;34;6446;-81
2022/08/01 00:36:32;;;;;;;700.10;650.33;;;;;;;24.78;51.78;99241.44;283152;34;1230;-81
2022/08/01 00:36:42;;;;;;;702.35;652.63;;;;;;;24.75;52.06;99239.09;283136;34;6293;-81
2022/08/01 00:36:52;;;;;;;708.43;658.53;;;;;;;24.75;52.03;99232.91;280225;34;5114;-81
2022/08/01 00:37:03;;;;;;;712.47;662.57;;;;;;;24.74;51.94;99234.75;275813;35;1325;-81
2022/08/01 00:37:13;;;;;;;714.40;664.45;;;;;;;24.79;52.21;99239.59;276574;35;4243;-81
2022/08/01 00:37:24;;;;;;;719.03;669.03;;;;;;;24.79;52.02;99234.25;275777;35;5022;-81
2022/08/01 00:37:34;;;;;;;722.00;671.95;;;;;;;24.77;52.07;99237.09;273405;36;1230;-81
2022/08/01 00:37:44;;;;;;;725.63;675.33;;;;;;;24.77;52.14;99236.25;270418;35;7550;-81
2022/08/01 00:37:55;;;;;;;729.13;678.67;;;;;;;24.79;51.71;99239.59;269964;35;8563;-81
2022/08/01 00:38:05;;;;;;;735.33;684.73;;;;;;;24.81;52.17;99238.44;271623;36;1268;-81
2022/08/01 00:38:16;;;;;;;731.73;681.33;;;;;;;24.81;51.74;99232.25;267667;36;10409;-81
2022/08/01 00:38:26;;;;;;;720.33;670.35;;;;;;;24.78;52.04;99238.78;267633;36;9843;-80
2022/08/01 00:40:21;;;;;;;635.78;589.14;;;;;;;24.78;51.96;99233.41;2464869;27;20513;-90
2022/08/01 00:40:32;;;;;;;724.03;674.73;;;;;;;24.76;51.71;99238.09;346670;28;1306;-91
2022/08/01 00:40:42;;;;;;;735.55;685.92;;;;;;;24.70;51.79;99225.34;341502;28;1139;-91
2022/08/01 00:40:52;;;;;;;740.13;690.23;;;;;;;24.74;51.87;99232.06;341762;28;1178;-91
2022/08/01 00:41:03;;;;;;;741.47;691.37;;;;;;;24.65;51.86;99230.38;343000;28;1234;-90
2022/08/01 00:41:13;;;;;;;739.20;688.80;;;;;;;24.63;51.91;99224.34;344963;28;1327;-93
2022/08/01 00:41:24;;;;;;;741.23;690.80;;;;;;;24.63;52.12;99221.69;345574;28;1293;-91
2022/08/01 00:41:34;;;;;;;743.28;692.78;;;;;;;24.66;51.95;99229.38;346151;28;1240;-91
2022/08/01 00:41:45;;;;;;;744.90;694.47;;;;;;;24.68;52.17;99227.38;343588;28;1189;-91
2022/08/01 00:41:55;;;;;;;738.28;687.97;;;;;;;24.68;51.75;99230.06;345111;28;1354;-90
2022/08/01 00:42:09;;;;;;;730.37;680.00;;;;;;;24.59;51.82;99223.00;344267;28;1335;-91
2022/08/01 00:42:20;;;;;;;714.17;664.20;;;;;;;24.62;52.18;99233.38;345436;28;872;-91
2022/08/01 00:42:30;;;;;;;714.35;664.45;;;;;;;24.60;52.06;99230.03;345030;28;1286;-91
2022/08/01 00:42:41;;;;;;;720.37;670.10;;;;;;;24.66;51.91;99233.91;344348;28;1323;-90
2022/08/01 00:42:51;;;;;;;724.30;674.08;;;;;;;24.62;52.06;99227.19;346681;28;1336;-91
2022/08/01 00:43:02;;;;;;;725.75;675.80;;;;;;;24.63;52.09;99229.72;345335;28;1268;-91
2022/08/01 00:43:12;;;;;;;727.07;677.27;;;;;;;24.61;52.02;99231.72;341838;28;1507;-91
2022/08/01 00:43:23;;;;;;;736.63;686.65;;;;;;;24.67;52.29;99241.78;342018;28;1328;-91
2022/08/01 00:43:33;;;;;;;741.00;690.73;;;;;;;24.63;52.40;99237.75;341564;28;1205;-90
2022/08/01 00:43:44;;;;;;;746.05;695.67;;;;;;;24.63;51.99;99235.06;343033;28;1197;-90
2022/08/01 00:43:54;;;;;;;746.00;695.43;;;;;;;24.60;52.11;99235.38;343176;28;1174;-90
2022/08/01 00:44:05;;;;;;;748.47;698.00;;;;;;;24.58;52.08;99226.69;344054;28;1301;-91
2022/08/01 00:44:15;;;;;;;745.03;694.65;;;;;;;24.66;52.05;99233.91;345664;28;1256;-91
2022/08/01 00:44:26;;;;;;;744.92;694.55;;;;;;;24.65;52.23;99243.75;343660;28;1292;-91
2022/08/01 00:44:37;;;;;;;741.88;691.42;;;;;;;24.64;52.05;99236.75;342900;28;1304;-91
2022/08/01 00:44:47;;;;;;;747.37;696.70;;;;;;;24.65;51.85;99249.13;341088;28;1297;-92
2022/08/01 00:44:58;;;;;;;737.90;687.50;;;;;;;24.62;51.87;99244.09;341711;28;1304;-91
2022/08/01 00:45:09;;;;;;;730.20;679.83;;;;;;;24.53;51.82;99224.47;348204;28;1204;-91
2022/08/01 00:45:19;;;;;;;715.53;665.47;;;;;;;24.60;51.98;99239.91;345960;28;1292;-91
2022/08/01 00:45:30;;;;;;;715.22;665.10;;;;;;;24.53;51.98;99235.19;344923;28;1243;-92
2022/08/01 00:45:40;;;;;;;715.63;665.40;;;;;;;24.56;52.11;99231.34;340639;28;1272;-92
2022/08/01 00:45:51;;;;;;;716.17;665.95;;;;;;;24.59;52.17;99235.53;338322;29;1236;-91
2022/08/01 00:46:01;;;;;;;718.30;667.77;;;;;;;24.57;52.11;99218.81;342984;28;1096;-91
2022/08/01 00:46:12;;;;;;;719.35;669.03;;;;;;;24.63;52.13;99240.41;342895;28;1360;-92
2022/08/01 00:46:22;;;;;;;723.27;673.03;;;;;;;24.60;52.32;99232.69;341817;28;852;-92
2022/08/01 00:46:33;;;;;;;727.92;677.78;;;;;;;24.62;52.03;99230.72;344533;28;1268;-93
2022/08/01 00:46:43;;;;;;;735.20;685.00;;;;;;;24.61;52.19;99239.72;343255;28;1209;-92
2022/08/01 00:46:53;;;;;;;741.67;691.25;;;;;;;24.56;52.09;99236.69;341310;28;1261;-92
2022/08/01 00:47:04;;;;;;;753.77;702.97;;;;;;;24.54;52.25;99241.38;341743;28;1206;-92
2022/08/01 00:47:15;;;;;;;756.42;705.80;;;;;;;24.52;52.34;99238.03;341727;28;1229;-92
2022/08/01 00:47:25;;;;;;;758.93;708.40;;;;;;;24.55;52.55;99248.41;344235;28;1298;-92
2022/08/01 00:47:35;;;;;;;760.88;710.22;;;;;;;24.50;52.17;99235.50;338980;29;1347;-92
2022/08/01 00:47:46;;;;;;;763.60;712.63;;;;;;;24.54;52.24;99236.03;339729;29;1269;-92
2022/08/01 00:47:57;;;;;;;766.63;715.47;;;;;;;24.54;52.00;99234.19;339067;29;1361;-91
2022/08/01 00:48:07;;;;;;;767.30;716.30;;;;;;;24.57;52.30;99242.88;338117;29;1349;-92
2022/08/01 00:48:18;;;;;;;762.97;712.17;;;;;;;24.55;52.10;99235.03;337264;29;1466;-91
2022/08/01 00:48:28;;;;;;;765.60;714.75;;;;;;;24.49;52.27;99233.00;336535;29;1235;-91
2022/08/01 00:48:39;;;;;;;760.77;709.90;;;;;;;24.57;52.03;99240.22;337932;29;1183;-91
2022/08/01 00:48:49;;;;;;;754.03;703.30;;;;;;;24.57;52.36;99241.06;338784;29;1312;-91
2022/08/01 00:49:00;;;;;;;741.75;691.25;;;;;;;24.48;52.23;99225.97;337631;29;1489;-91
2022/08/01 00:49:10;;;;;;;736.88;686.53;;;;;;;24.50;52.04;99230.16;337634;29;1350;-91
2022/08/01 00:49:20;;;;;;;740.57;690.03;;;;;;;24.55;51.77;99235.03;339691;29;1307;-91
2022/08/01 00:49:31;;;;;;;746.57;695.77;;;;;;;24.60;51.66;99235.38;335725;29;1235;-91
2022/08/01 00:49:41;;;;;;;750.80;700.00;;;;;;;24.62;51.82;99241.41;337257;29;972;-91
2022/08/01 00:49:52;;;;;;;749.90;699.10;;;;;;;24.64;51.89;99244.75;335199;29;790;-91
2022/08/01 00:50:03;;;;;;;754.97;704.15;;;;;;;24.63;52.05;99240.41;335245;29;949;-91
2022/08/01 00:50:14;;;;;;;753.83;702.88;;;;;;;24.57;52.08;99230.34;335205;29;1354;-91
2022/08/01 00:50:24;;;;;;;761.83;710.53;;;;;;;24.61;51.80;99231.72;333292;29;1319;-92
2022/08/01 00:50:38;;;;;;;761.10;709.63;;;;;;;24.55;52.05;99227.00;335743;29;1436;-92
2022/08/01 00:50:49;;;;;;;760.42;709.10;;;;;;;24.60;52.20;99234.53;329974;29;1472;-92
2022/08/01 00:50:59;;;;;;;764.60;713.08;;;;;;;24.60;52.02;99235.38;324724;30;1930;-93
2022/08/01 00:51:09;;;;;;;768.60;716.97;;;;;;;24.62;51.89;99240.56;319498;30;1339;-93
2022/08/01 00:51:20;;;;;;;771.83;720.25;;;;;;;24.57;51.93;99233.03;318233;30;1825;-93
2022/08/01 00:51:30;;;;;;;771.53;720.30;;;;;;;24.62;51.92;99244.09;319530;30;1509;-93
2022/08/01 00:51:41;;;;;;;770.15;719.15;;;;;;;24.66;51.85;99252.63;322655;30;1280;-93
2022/08/01 00:51:51;;;;;;;767.03;716.00;;;;;;;24.64;51.68;99242.09;323239;30;1400;-93
2022/08/01 00:52:04;;;;;;;767.60;716.67;;;;;;;24.58;51.77;99229.34;322645;30;1278;-93
2022/08/01 00:52:14;;;;;;;766.60;715.67;;;;;;;24.49;52.24;99233.81;318868;30;1766;-93